createdAt,value
2019-01-30T00:00:53.809Z,10.63
2019-01-30T00:03:22.527Z,9.57
2019-01-30T00:05:51.217Z,8.20
2019-01-30T00:08:19.868Z,8.63
2019-01-30T00:10:48.564Z,11.80
2019-01-30T00:13:17.141Z,9.57
2019-01-30T00:15:55.814Z,9.47
2019-01-30T00:18:16.115Z,10.80
2019-01-30T00:20:44.806Z,10.13
2019-01-30T00:23:13.555Z,10.60
2019-01-30T00:25:42.196Z,9.97
2019-01-30T00:28:10.888Z,8.93
2019-01-30T00:30:39.530Z,9.63
2019-01-30T00:33:08.276Z,11.17
2019-01-30T00:35:36.970Z,10.17
2019-01-30T00:38:05.690Z,9.93
2019-01-30T00:40:34.453Z,11.67
2019-01-30T00:43:03.104Z,10.70
2019-01-30T00:45:31.863Z,12.50
2019-01-30T00:48:00.448Z,11.43
2019-01-30T00:50:29.228Z,11.40
2019-01-30T00:52:57.874Z,10.43
2019-01-30T00:55:26.445Z,11.57
2019-01-30T00:57:55.140Z,10.20
2019-01-30T01:00:29.329Z,12.37
2019-01-30T01:02:58.096Z,12.07
2019-01-30T01:05:26.824Z,11.33
2019-01-30T01:07:55.545Z,10.27
2019-01-30T01:10:24.410Z,10.80
2019-01-30T01:12:53.128Z,11.47
2019-01-30T01:15:21.818Z,12.63
2019-01-30T01:17:50.473Z,12.57
2019-01-30T01:20:20.922Z,10.07
2019-01-30T01:22:49.633Z,12.77
2019-01-30T01:25:18.795Z,10.90
2019-01-30T01:27:48.044Z,9.93
2019-01-30T01:30:28.212Z,10.33
2019-01-30T01:32:57.062Z,9.43
2019-01-30T01:35:26.018Z,10.07
2019-01-30T01:42:21.507Z,10.43
2019-01-30T01:44:50.122Z,11.63
2019-01-30T01:47:18.774Z,9.30
2019-01-30T01:49:47.446Z,10.43
2019-01-30T01:52:16.247Z,9.37
2019-01-30T01:54:44.924Z,10.73
2019-01-30T01:57:13.593Z,11.93
2019-01-30T01:59:42.198Z,11.03
2019-01-30T02:02:11.010Z,11.93
2019-01-30T02:04:39.674Z,11.83
2019-01-30T02:07:08.338Z,12.20
2019-01-30T02:09:37.056Z,12.87
2019-01-30T02:12:05.817Z,13.03
2019-01-30T02:14:34.480Z,13.17
2019-01-30T02:17:03.095Z,11.37
2019-01-30T02:19:31.715Z,14.70
2019-01-30T02:22:00.443Z,11.17
2019-01-30T02:24:29.230Z,12.00
2019-01-30T02:26:57.967Z,12.87
2019-01-30T02:29:26.705Z,11.17
2019-01-30T02:31:55.412Z,10.53
2019-01-30T02:34:23.997Z,13.60
2019-01-30T02:36:58.417Z,12.23
2019-01-30T02:39:27.100Z,11.90
2019-01-30T02:41:55.895Z,11.60
2019-01-30T02:44:24.944Z,11.43
2019-01-30T02:46:53.749Z,12.47
2019-01-30T02:49:22.430Z,11.17
2019-01-30T02:51:51.089Z,12.67
2019-01-30T02:54:19.840Z,10.60
2019-01-30T02:56:48.508Z,11.87
2019-01-30T02:59:17.184Z,11.70
2019-01-30T03:01:47.623Z,10.00
2019-01-30T03:04:16.349Z,10.00
2019-01-30T03:06:45.096Z,9.50
2019-01-30T03:09:13.790Z,11.47
2019-01-30T03:11:42.519Z,14.90
2019-01-30T03:14:11.128Z,10.73
2019-01-30T03:16:39.856Z,12.27
2019-01-30T03:19:08.463Z,12.27
2019-01-30T03:21:37.110Z,13.20
2019-01-30T03:24:05.915Z,11.00
2019-01-30T03:26:34.603Z,10.53
2019-01-30T03:29:03.271Z,11.50
2019-01-30T03:31:31.948Z,11.17
2019-01-30T03:34:00.611Z,9.90
2019-01-30T03:36:29.347Z,10.73
2019-01-30T03:38:57.952Z,12.10
2019-01-30T03:41:26.679Z,10.00
2019-01-30T03:43:55.335Z,10.80
2019-01-30T03:46:24.055Z,10.93
2019-01-30T03:48:52.789Z,12.53
2019-01-30T03:51:21.520Z,10.97
2019-01-30T03:53:50.248Z,10.33
2019-01-30T03:56:19.050Z,11.10
2019-01-30T03:58:47.662Z,10.83
2019-01-30T04:01:26.265Z,10.70
2019-01-30T04:03:46.931Z,12.00
2019-01-30T04:06:15.675Z,11.47
2019-01-30T04:08:44.282Z,11.90
2019-01-30T04:11:13.019Z,11.50
2019-01-30T04:13:41.634Z,12.57
2019-01-30T04:16:10.281Z,11.57
2019-01-30T04:18:38.962Z,11.40
2019-01-30T04:21:07.582Z,12.67
2019-01-30T04:23:36.252Z,11.63
2019-01-30T04:26:04.926Z,11.80
2019-01-30T04:28:33.734Z,12.13
2019-01-30T04:31:02.478Z,11.80
2019-01-30T04:33:31.151Z,10.63
2019-01-30T04:35:59.824Z,11.87
2019-01-30T04:38:28.643Z,15.67
2019-01-30T04:40:57.256Z,11.17
2019-01-30T04:43:25.987Z,13.03
2019-01-30T04:45:54.741Z,11.77
2019-01-30T04:48:23.407Z,13.17
2019-01-30T04:50:52.154Z,12.00
2019-01-30T04:53:20.828Z,11.43
2019-01-30T04:55:49.563Z,11.30
2019-01-30T04:58:18.262Z,11.80
2019-01-30T05:00:47.041Z,12.90
2019-01-30T05:03:15.801Z,10.80
2019-01-30T05:05:44.542Z,11.70
2019-01-30T05:08:13.222Z,11.67
2019-01-30T05:10:41.909Z,12.43
2019-01-30T05:13:10.727Z,14.00
2019-01-30T05:15:39.330Z,12.57
2019-01-30T05:18:08.126Z,11.00
2019-01-30T05:20:36.856Z,12.33
2019-01-30T05:23:05.606Z,13.80
2019-01-30T05:25:34.274Z,11.30
2019-01-30T05:28:02.952Z,16.43
2019-01-30T05:30:33.644Z,12.23
2019-01-30T05:33:02.388Z,11.00
2019-01-30T05:35:31.067Z,12.53
2019-01-30T05:37:59.801Z,11.97
2019-01-30T05:40:28.607Z,13.23
2019-01-30T05:42:57.354Z,11.50
2019-01-30T05:45:26.203Z,11.13
2019-01-30T05:47:55.009Z,10.37
2019-01-30T05:50:23.813Z,10.57
2019-01-30T05:52:52.560Z,11.80
2019-01-30T05:55:21.315Z,11.67
2019-01-30T05:57:49.980Z,11.20
2019-01-30T06:00:23.079Z,11.37
2019-01-30T06:02:52.029Z,10.80
2019-01-30T06:05:20.831Z,15.13
2019-01-30T06:07:49.628Z,12.70
2019-01-30T06:10:18.335Z,10.90
2019-01-30T06:12:47.140Z,14.80
2019-01-30T06:15:18.033Z,12.47
2019-01-30T06:17:46.718Z,14.07
2019-01-30T06:20:18.424Z,14.40
2019-01-30T06:22:47.071Z,10.93
2019-01-30T06:25:15.810Z,13.73
2019-01-30T06:27:44.622Z,14.30
2019-01-30T06:30:18.776Z,11.33
2019-01-30T06:32:47.574Z,13.37
2019-01-30T06:35:16.381Z,12.00
2019-01-30T06:37:45.285Z,13.43
2019-01-30T06:40:16.859Z,13.60
2019-01-30T06:42:45.546Z,12.43
2019-01-30T06:45:14.347Z,13.67
2019-01-30T06:47:43.101Z,15.27
2019-01-30T06:50:13.807Z,12.63
2019-01-30T06:52:42.556Z,11.57
2019-01-30T06:55:11.356Z,12.27
2019-01-30T06:57:40.113Z,12.17
2019-01-30T07:00:14.871Z,13.90
2019-01-30T07:02:43.625Z,11.77
2019-01-30T07:05:12.384Z,12.83
2019-01-30T07:07:41.044Z,13.57
2019-01-30T07:10:12.779Z,13.37
2019-01-30T07:12:41.514Z,13.93
2019-01-30T07:15:10.270Z,12.90
2019-01-30T07:17:38.935Z,12.97
2019-01-30T07:20:10.789Z,13.90
2019-01-30T07:22:39.826Z,13.97
2019-01-30T07:25:11.181Z,15.20
2019-01-30T07:27:39.923Z,14.67
2019-01-30T07:30:31.920Z,14.37
2019-01-30T07:33:00.726Z,13.37
2019-01-30T07:35:29.487Z,12.53
2019-01-30T07:37:58.700Z,13.43
2019-01-30T07:40:27.709Z,12.07
2019-01-30T07:42:56.509Z,12.50
2019-01-30T07:45:26.568Z,13.33
2019-01-30T07:47:55.367Z,12.80
2019-01-30T07:50:24.217Z,12.63
2019-01-30T07:52:53.132Z,11.80
2019-01-30T07:55:21.889Z,13.43
2019-01-30T07:57:50.510Z,13.83
2019-01-30T08:00:21.808Z,11.30
2019-01-30T08:02:53.326Z,13.23
2019-01-30T08:05:22.715Z,11.63
2019-01-30T08:07:52.223Z,11.23
2019-01-30T08:10:20.950Z,13.27
2019-01-30T08:12:49.704Z,11.47
2019-01-30T08:15:20.403Z,12.10
2019-01-30T08:17:49.194Z,12.67
2019-01-30T08:20:19.328Z,13.90
2019-01-30T08:22:48.152Z,12.47
2019-01-30T08:25:19.183Z,11.90
2019-01-30T08:27:48.410Z,11.87
2019-01-30T08:30:25.594Z,11.77
2019-01-30T08:35:30.339Z,11.87
2019-01-30T08:37:59.197Z,10.50
2019-01-30T08:40:28.020Z,11.33
2019-01-30T08:42:56.950Z,12.03
2019-01-30T08:45:30.092Z,11.63
2019-01-30T08:47:58.900Z,12.67
2019-01-30T08:50:27.662Z,13.67
2019-01-30T08:52:56.571Z,12.83
2019-01-30T08:55:25.443Z,10.70
2019-01-30T08:57:54.303Z,11.87
2019-01-30T09:00:27.645Z,10.60
2019-01-30T09:02:56.816Z,12.53
2019-01-30T09:05:25.875Z,12.23
2019-01-30T09:07:55.062Z,10.70
2019-01-30T09:10:25.723Z,11.17
2019-01-30T09:12:54.489Z,12.80
2019-01-30T09:15:24.550Z,12.03
2019-01-30T09:17:53.408Z,12.87
2019-01-30T09:20:23.678Z,11.83
2019-01-30T09:22:52.458Z,11.83
2019-01-30T09:25:23.266Z,11.33
2019-01-30T09:27:51.871Z,12.07
2019-01-30T09:30:25.921Z,11.47
2019-01-30T09:32:55.530Z,13.70
2019-01-30T09:35:24.614Z,11.67
2019-01-30T09:37:53.467Z,11.47
2019-01-30T09:40:22.705Z,11.27
2019-01-30T09:42:51.604Z,12.20
2019-01-30T09:45:21.215Z,11.70
2019-01-30T09:47:50.030Z,10.73
2019-01-30T09:50:23.453Z,11.23
2019-01-30T09:52:52.833Z,12.90
2019-01-30T09:55:21.703Z,12.87
2019-01-30T09:57:50.910Z,11.97
2019-01-30T10:00:31.273Z,13.40
2019-01-30T10:03:00.063Z,12.93
2019-01-30T10:05:28.749Z,13.40
2019-01-30T10:07:57.475Z,13.03
2019-01-30T10:10:38.068Z,14.20
2019-01-30T10:13:07.167Z,13.77
2019-01-30T10:15:38.377Z,12.77
2019-01-30T10:18:07.183Z,12.83
2019-01-30T10:20:37.287Z,15.47
2019-01-30T10:23:06.338Z,13.13
2019-01-30T10:25:35.144Z,14.43
2019-01-30T10:28:04.587Z,14.37
2019-01-30T10:30:38.832Z,13.60
2019-01-30T10:33:07.625Z,12.80
2019-01-30T10:35:36.306Z,12.67
2019-01-30T10:38:05.691Z,12.17
2019-01-30T10:40:34.491Z,12.20
2019-01-30T10:43:03.238Z,12.23
2019-01-30T10:45:32.044Z,12.87
2019-01-30T10:48:00.776Z,14.43
2019-01-30T10:50:31.731Z,12.83
2019-01-30T10:53:00.442Z,12.10
2019-01-30T10:55:31.510Z,12.40
2019-01-30T10:58:01.294Z,13.40
2019-01-30T11:00:32.741Z,12.10
2019-01-30T11:03:01.562Z,11.77
2019-01-30T11:05:30.296Z,11.53
2019-01-30T11:07:59.058Z,13.17
2019-01-30T11:10:27.786Z,11.73
2019-01-30T11:12:56.477Z,12.70
2019-01-30T11:15:29.780Z,13.30
2019-01-30T11:17:59.437Z,12.30
2019-01-30T11:20:29.638Z,12.07
2019-01-30T11:22:58.332Z,12.37
2019-01-30T11:25:41.617Z,11.17
2019-01-30T11:28:10.465Z,13.40
2019-01-30T11:30:39.131Z,12.57
2019-01-30T11:33:07.934Z,12.30
2019-01-30T11:35:36.882Z,13.27
2019-01-30T11:38:05.667Z,12.80
2019-01-30T11:40:34.411Z,12.43
2019-01-30T11:43:03.176Z,13.17
2019-01-30T11:45:40.520Z,13.83
2019-01-30T11:48:10.350Z,13.77
2019-01-30T11:50:39.708Z,13.27
2019-01-30T11:53:08.506Z,13.30
2019-01-30T11:55:38.939Z,12.53
2019-01-30T11:58:08.158Z,13.07
2019-01-30T12:00:41.418Z,14.50
2019-01-30T12:03:10.027Z,14.70
2019-01-30T12:05:38.832Z,12.70
2019-01-30T12:08:07.779Z,13.97
2019-01-30T12:10:36.458Z,14.10
2019-01-30T12:13:05.214Z,13.53
2019-01-30T12:15:33.828Z,12.40
2019-01-30T12:18:02.491Z,11.90
2019-01-30T12:20:31.234Z,12.40
2019-01-30T12:23:00.039Z,12.90
2019-01-30T12:25:28.829Z,11.83
2019-01-30T12:27:57.531Z,11.80
2019-01-30T12:30:27.785Z,13.97
2019-01-30T12:32:56.577Z,12.03
2019-01-30T12:35:25.379Z,13.17
2019-01-30T12:37:54.171Z,14.87
2019-01-30T12:40:24.183Z,12.27
2019-01-30T12:42:53.148Z,12.53
2019-01-30T12:45:33.896Z,13.47
2019-01-30T12:48:02.738Z,12.53
2019-01-30T12:50:31.640Z,12.70
2019-01-30T12:53:00.312Z,11.83
2019-01-30T12:55:29.653Z,12.80
2019-01-30T12:57:58.643Z,12.40
2019-01-30T13:00:30.347Z,13.97
2019-01-30T13:02:59.339Z,11.83
2019-01-30T13:05:28.738Z,12.93
2019-01-30T13:07:57.487Z,17.53
2019-01-30T13:10:26.452Z,13.63
2019-01-30T13:12:55.361Z,13.87
2019-01-30T13:15:27.092Z,13.57
2019-01-30T13:17:56.108Z,14.07
2019-01-30T13:20:24.935Z,15.40
2019-01-30T13:22:53.798Z,11.70
2019-01-30T13:25:27.743Z,15.30
2019-01-30T13:27:56.546Z,13.70
2019-01-30T13:30:28.119Z,12.87
2019-01-30T13:32:56.989Z,13.83
2019-01-30T13:35:25.905Z,13.07
2019-01-30T13:37:54.682Z,14.00
2019-01-30T13:40:26.459Z,12.80
2019-01-30T13:42:55.191Z,12.63
2019-01-30T13:45:24.098Z,14.10
2019-01-30T13:47:52.841Z,12.47
2019-01-30T13:50:23.739Z,13.10
2019-01-30T13:52:52.533Z,14.87
2019-01-30T13:55:21.308Z,13.13
2019-01-30T13:57:50.250Z,13.83
2019-01-30T14:00:24.773Z,12.70
2019-01-30T14:02:53.474Z,13.00
2019-01-30T14:05:22.209Z,13.77
2019-01-30T14:07:51.508Z,13.40
2019-01-30T14:10:20.437Z,15.23
2019-01-30T14:12:49.179Z,13.30
2019-01-30T14:15:20.566Z,13.43
2019-01-30T14:17:49.296Z,13.87
2019-01-30T14:20:18.846Z,13.73
2019-01-30T14:22:47.661Z,12.83
2019-01-30T14:25:17.407Z,13.27
2019-01-30T14:27:46.129Z,12.57
2019-01-30T14:30:32.492Z,14.13
2019-01-30T14:33:01.151Z,13.10
2019-01-30T14:35:31.650Z,13.90
2019-01-30T14:38:00.396Z,12.53
2019-01-30T14:40:29.116Z,12.67
2019-01-30T14:42:58.117Z,14.03
2019-01-30T14:45:26.851Z,14.00
2019-01-30T14:47:55.507Z,14.20
2019-01-30T14:50:26.140Z,12.10
2019-01-30T14:52:55.031Z,12.40
2019-01-30T14:55:23.804Z,13.60
2019-01-30T14:57:53.789Z,12.87
2019-01-30T15:00:25.196Z,13.23
2019-01-30T15:02:53.939Z,14.13
2019-01-30T15:05:22.969Z,14.83
2019-01-30T15:07:51.842Z,12.70
2019-01-30T15:10:22.476Z,12.63
2019-01-30T15:12:51.697Z,13.73
2019-01-30T15:15:27.984Z,15.40
2019-01-30T15:17:56.740Z,12.80
2019-01-30T15:20:27.534Z,12.93
2019-01-30T15:22:56.472Z,12.30
2019-01-30T15:25:25.790Z,12.50
2019-01-30T15:27:54.466Z,14.13
2019-01-30T15:30:31.618Z,12.73
2019-01-30T15:33:00.369Z,13.23
2019-01-30T15:35:33.559Z,12.70
2019-01-30T15:38:00.046Z,14.10
2019-01-30T15:40:30.345Z,14.10
2019-01-30T15:42:59.013Z,12.40
2019-01-30T15:45:27.810Z,13.53
2019-01-30T15:47:56.423Z,14.00
2019-01-30T15:50:33.919Z,14.20
2019-01-30T15:53:02.784Z,15.67
2019-01-30T15:55:31.574Z,14.87
2019-01-30T15:58:05.912Z,15.03
2019-01-30T16:00:52.161Z,16.40
2019-01-30T16:03:20.942Z,16.17
2019-01-30T16:05:49.632Z,15.40
2019-01-30T16:08:18.346Z,16.83
2019-01-30T16:10:47.146Z,13.93
2019-01-30T16:13:15.901Z,15.13
2019-01-30T16:15:56.652Z,15.53
2019-01-30T16:18:25.383Z,14.20
2019-01-30T16:20:54.134Z,17.03
2019-01-30T16:23:22.868Z,14.70
2019-01-30T16:25:53.083Z,16.20
2019-01-30T16:28:21.734Z,16.50
2019-01-30T16:30:50.467Z,17.80
2019-01-30T16:33:19.146Z,16.53
2019-01-30T16:35:55.657Z,18.70
2019-01-30T16:38:18.574Z,17.27
2019-01-30T16:40:47.232Z,17.60
2019-01-30T16:43:15.985Z,18.50
2019-01-30T16:45:44.809Z,21.43
2019-01-30T16:48:13.438Z,20.93
2019-01-30T16:50:42.229Z,22.17
2019-01-30T16:53:10.962Z,29.30
2019-01-30T16:55:39.712Z,25.40
2019-01-30T16:58:08.782Z,28.23
2019-01-30T17:00:38.720Z,29.77
2019-01-30T17:03:09.315Z,28.70
2019-01-30T17:05:38.059Z,31.70
2019-01-30T17:08:07.507Z,30.27
2019-01-30T17:10:36.403Z,28.67
2019-01-30T17:13:17.210Z,30.23
2019-01-30T17:15:45.950Z,28.77
2019-01-30T17:18:15.787Z,30.00
2019-01-30T17:20:44.631Z,32.40
2019-01-30T17:23:13.512Z,30.13
2019-01-30T17:25:42.483Z,32.00
2019-01-30T17:28:11.305Z,30.37
2019-01-30T17:30:58.766Z,29.87
2019-01-30T17:33:27.436Z,32.80
2019-01-30T17:35:56.217Z,29.83
2019-01-30T17:38:25.342Z,31.43
2019-01-30T17:40:54.536Z,32.93
2019-01-30T17:43:23.200Z,30.83
2019-01-30T17:45:51.867Z,34.07
2019-01-30T17:48:20.755Z,30.43
2019-01-30T17:50:49.429Z,29.07
2019-01-30T17:53:18.044Z,28.53
2019-01-30T17:55:46.757Z,27.30
2019-01-30T17:58:15.483Z,27.90
2019-01-30T18:00:50.073Z,24.13
2019-01-30T18:03:18.682Z,27.93
2019-01-30T18:05:47.578Z,25.17
2019-01-30T18:08:16.313Z,23.90
2019-01-30T18:10:45.107Z,26.43
2019-01-30T18:13:13.854Z,24.33
2019-01-30T18:15:42.660Z,23.40
2019-01-30T18:18:12.334Z,25.53
2019-01-30T18:20:41.419Z,24.80
2019-01-30T18:23:10.370Z,24.37
2019-01-30T18:25:39.034Z,26.30
2019-01-30T18:28:07.835Z,26.77
2019-01-30T18:30:36.581Z,27.63
2019-01-30T18:33:05.651Z,26.63
2019-01-30T18:35:34.263Z,27.40
2019-01-30T18:38:03.071Z,28.37
2019-01-30T18:40:32.225Z,25.53
2019-01-30T18:43:00.915Z,25.50
2019-01-30T18:45:29.727Z,27.30
2019-01-30T18:47:58.995Z,29.30
2019-01-30T18:50:29.151Z,25.40
2019-01-30T18:52:58.166Z,29.20
2019-01-30T18:55:26.966Z,28.70
2019-01-30T18:57:55.715Z,27.33
2019-01-30T19:00:36.119Z,28.13
2019-01-30T19:03:07.266Z,28.97
2019-01-30T19:05:36.058Z,30.03
2019-01-30T19:08:04.853Z,28.93
2019-01-30T19:10:33.524Z,29.90
2019-01-30T19:13:02.262Z,31.90
2019-01-30T19:15:31.795Z,30.70
2019-01-30T19:18:00.431Z,32.03
2019-01-30T19:20:37.338Z,29.33
2019-01-30T19:23:07.022Z,29.27
2019-01-30T19:25:35.984Z,27.87
2019-01-30T19:28:05.538Z,30.80
2019-01-30T19:30:34.529Z,29.43
2019-01-30T19:33:03.817Z,30.57
2019-01-30T19:35:32.424Z,28.77
2019-01-30T19:38:01.276Z,27.53
2019-01-30T19:40:30.083Z,28.17
2019-01-30T19:42:58.769Z,29.40
2019-01-30T19:45:28.274Z,29.30
2019-01-30T19:47:56.947Z,32.07
2019-01-30T19:50:27.609Z,35.63
2019-01-30T19:52:56.510Z,36.17
2019-01-30T19:55:25.260Z,40.13
2019-01-30T19:57:55.068Z,39.80
2019-01-30T20:00:32.370Z,43.30
2019-01-30T20:03:02.671Z,41.80
2019-01-30T20:05:31.418Z,41.50
2019-01-30T20:08:00.571Z,43.07
2019-01-30T20:10:31.813Z,48.23
2019-01-30T20:13:00.622Z,46.33
2019-01-30T20:15:30.188Z,46.90
2019-01-30T20:17:59.043Z,46.33
2019-01-30T20:20:27.861Z,47.07
2019-01-30T20:22:56.707Z,47.43
2019-01-30T20:25:28.465Z,50.83
2019-01-30T20:27:57.271Z,43.47
2019-01-30T20:30:26.476Z,47.73
2019-01-30T20:32:55.668Z,46.40
2019-01-30T20:35:25.446Z,43.27
2019-01-30T20:37:54.337Z,42.80
2019-01-30T20:40:25.670Z,44.20
2019-01-30T20:42:54.630Z,44.37
2019-01-30T20:45:33.391Z,44.07
2019-01-30T20:47:54.206Z,47.57
2019-01-30T20:50:30.338Z,52.10
2019-01-30T20:52:59.290Z,49.67
2019-01-30T20:55:28.039Z,48.63
2019-01-30T20:57:56.803Z,50.80
2019-01-30T21:00:35.246Z,51.63
2019-01-30T21:03:04.893Z,49.80
2019-01-30T21:05:33.788Z,50.87
2019-01-30T21:08:02.736Z,55.70
2019-01-30T21:10:34.138Z,54.50
2019-01-30T21:13:03.031Z,57.97
2019-01-30T21:15:31.809Z,55.33
2019-01-30T21:18:00.593Z,54.00
2019-01-30T21:20:29.326Z,50.97
2019-01-30T21:22:58.114Z,50.33
2019-01-30T21:25:27.026Z,49.10
2019-01-30T21:27:55.859Z,48.60
2019-01-30T21:30:30.132Z,47.90
2019-01-30T21:32:58.992Z,44.80
2019-01-30T21:35:27.958Z,45.10
2019-01-30T21:37:56.657Z,44.67
2019-01-30T21:40:25.484Z,40.43
2019-01-30T21:42:54.282Z,42.60
2019-01-30T21:45:24.883Z,43.67
2019-01-30T21:47:54.006Z,44.10
2019-01-30T21:50:23.036Z,41.60
2019-01-30T21:52:52.256Z,42.63
2019-01-30T21:55:24.970Z,41.77
2019-01-30T21:57:54.088Z,41.93
2019-01-30T22:00:25.682Z,41.40
2019-01-30T22:02:54.703Z,40.17
2019-01-30T22:05:23.943Z,37.50
2019-01-30T22:08:00.539Z,37.73
2019-01-30T22:10:25.990Z,38.00
2019-01-30T22:12:55.099Z,36.00
2019-01-30T22:15:24.295Z,36.67
2019-01-30T22:17:53.396Z,38.33
2019-01-30T22:20:26.937Z,38.13
2019-01-30T22:22:56.238Z,36.50
2019-01-30T22:25:26.808Z,37.17
2019-01-30T22:27:55.824Z,35.33
2019-01-30T22:30:34.863Z,34.83
2019-01-30T22:33:04.618Z,34.13
2019-01-30T22:35:33.690Z,32.23
2019-01-30T22:38:12.269Z,31.63
2019-01-30T22:40:33.700Z,32.80
2019-01-30T22:43:02.772Z,32.77
2019-01-30T22:45:31.822Z,30.60
2019-01-30T22:48:00.798Z,30.53
2019-01-30T22:50:29.880Z,28.27
2019-01-30T22:52:59.016Z,28.60
2019-01-30T22:55:27.876Z,29.00
2019-01-30T22:57:57.087Z,28.93
2019-01-30T23:00:30.721Z,28.00
2019-01-30T23:03:00.313Z,29.20
2019-01-30T23:05:55.033Z,29.47
2019-01-30T23:08:24.206Z,29.90
2019-01-30T23:10:55.905Z,31.43
2019-01-30T23:13:30.870Z,30.97
2019-01-30T23:16:17.808Z,30.07
2019-01-30T23:19:04.855Z,29.90
2019-01-30T23:21:36.792Z,30.97
2019-01-30T23:24:43.845Z,29.77
2019-01-30T23:27:18.556Z,34.83
2019-01-30T23:30:13.433Z,34.27
2019-01-30T23:33:02.166Z,32.97
2019-01-30T23:35:46.278Z,35.03
2019-01-30T23:38:34.439Z,38.37
2019-01-30T23:41:09.352Z,37.90
2019-01-30T23:43:44.160Z,37.97
2019-01-30T23:46:19.128Z,35.30
2019-01-30T23:48:57.293Z,36.63
2019-01-30T23:51:38.202Z,40.00
2019-01-30T23:54:16.173Z,35.43
2019-01-30T23:56:48.083Z,38.90
2019-01-30T23:59:35.100Z,37.07
